Time;durP1;ratioP1;P1;durP2;ratioP2;P2;SDS_P1;SDS_P2;PMS_P1;PMS_P2;Temp;Humidity;BMP_temperature;BMP_pressure;BME280_temperature;BME280_humidity;BME280_pressure;Samples;Min_cycle;Max_cycle;Signal;HPM_P1;HPM_P2
2023/06/17 00:01:25;;;;;;;8.50;5.70;;;16.50;99.90;;;;;;4992870;28;20157;-74
2023/06/17 00:03:53;;;;;;;6.40;5.80;;;16.50;99.90;;;;;;5010423;28;20062;-74
2023/06/17 00:06:20;;;;;;;6.10;5.50;;;16.40;99.90;;;;;;4975697;28;20168;-74
2023/06/17 00:08:48;;;;;;;7.10;5.90;;;16.40;99.90;;;;;;4977487;28;20056;-73
2023/06/17 00:11:17;;;;;;;8.15;5.47;;;16.40;99.90;;;;;;4977333;28;20117;-74
2023/06/17 00:13:44;;;;;;;7.40;6.30;;;16.40;99.90;;;;;;4993584;28;20050;-74
2023/06/17 00:16:12;;;;;;;7.93;6.43;;;16.40;99.90;;;;;;4993668;28;20076;-74
2023/06/17 00:18:41;;;;;;;7.35;6.00;;;16.40;99.90;;;;;;5011695;28;20042;-74
2023/06/17 00:21:09;;;;;;;8.95;6.15;;;16.40;99.90;;;;;;4996213;28;20058;-74
2023/06/17 00:23:36;;;;;;;9.52;6.10;;;16.50;99.90;;;;;;4994487;28;20063;-74
2023/06/17 00:26:06;;;;;;;6.15;5.55;;;16.50;99.90;;;;;;5013343;28;20054;-74
2023/06/17 00:28:34;;;;;;;7.88;6.05;;;16.50;99.90;;;;;;4995955;28;20050;-73
2023/06/17 00:31:01;;;;;;;6.70;5.50;;;16.40;99.90;;;;;;5003724;28;20073;-74
2023/06/17 00:33:29;;;;;;;6.43;5.40;;;16.40;99.90;;;;;;4994444;28;20077;-74
2023/06/17 00:35:59;;;;;;;7.35;6.22;;;16.30;99.90;;;;;;5005689;28;20046;-74
2023/06/17 00:38:26;;;;;;;7.63;6.15;;;16.30;99.90;;;;;;4994878;28;20462;-72
2023/06/17 00:40:56;;;;;;;6.60;5.85;;;16.20;99.90;;;;;;5009386;28;20456;-73
2023/06/17 00:43:25;;;;;;;6.78;6.05;;;16.20;99.90;;;;;;5010452;28;20112;-74
2023/06/17 00:45:52;;;;;;;6.88;6.03;;;16.20;99.90;;;;;;4992263;28;20405;-73
2023/06/17 00:48:20;;;;;;;10.30;5.63;;;16.10;99.90;;;;;;4991280;28;20053;-74
2023/06/17 00:50:49;;;;;;;7.03;6.15;;;16.10;99.90;;;;;;5010522;28;20196;-74
2023/06/17 00:53:17;;;;;;;8.15;6.05;;;16.00;99.90;;;;;;4994108;28;20046;-73
2023/06/17 00:55:46;;;;;;;7.20;6.30;;;15.90;99.90;;;;;;4993331;28;20545;-74
2023/06/17 00:58:16;;;;;;;6.47;5.55;;;16.00;99.90;;;;;;4992438;28;20478;-72
2023/06/17 01:00:45;;;;;;;6.70;5.80;;;15.90;99.90;;;;;;4994803;28;20054;-74
2023/06/17 01:03:13;;;;;;;7.13;6.10;;;15.80;99.90;;;;;;5003036;28;20045;-74
2023/06/17 01:05:41;;;;;;;8.07;6.13;;;15.80;99.90;;;;;;5023964;28;20049;-74
2023/06/17 01:08:28;;;;;;;9.73;6.32;;;15.70;99.90;;;;;;4983531;28;20082;-74
2023/06/17 01:11:03;;;;;;;9.90;7.13;;;15.60;99.90;;;;;;4981493;28;20046;-72
2023/06/17 01:13:33;;;;;;;7.80;6.63;;;15.60;99.90;;;;;;5000937;28;20440;-73
2023/06/17 01:16:02;;;;;;;7.60;6.43;;;15.50;99.90;;;;;;4993255;28;20112;-72
2023/06/17 01:18:34;;;;;;;7.60;6.05;;;15.50;99.90;;;;;;4985169;28;20646;-73
2023/06/17 01:21:05;;;;;;;8.05;6.28;;;15.40;99.90;;;;;;4999496;28;20062;-73
2023/06/17 01:23:38;;;;;;;8.90;6.25;;;15.40;99.90;;;;;;4992637;28;20132;-72
2023/06/17 01:26:07;;;;;;;7.05;6.35;;;15.30;99.90;;;;;;5008523;28;20061;-73
2023/06/17 01:28:38;;;;;;;9.88;6.53;;;15.30;99.90;;;;;;4991792;28;20152;-72
2023/06/17 01:31:08;;;;;;;7.55;6.20;;;15.30;99.90;;;;;;4991445;28;20449;-73
2023/06/17 01:33:37;;;;;;;8.52;6.60;;;15.20;99.90;;;;;;4992033;28;20544;-73
2023/06/17 01:36:25;;;;;;;8.77;6.13;;;15.20;99.90;;;;;;4985857;28;20046;-74
2023/06/17 01:39:04;;;;;;;8.57;6.25;;;15.10;99.90;;;;;;4975805;28;20110;-73
2023/06/17 01:41:42;;;;;;;7.15;6.40;;;15.10;99.90;;;;;;5003467;28;20076;-73
2023/06/17 01:44:12;;;;;;;8.15;6.38;;;15.00;99.90;;;;;;4975158;28;20065;-73
2023/06/17 01:46:41;;;;;;;9.77;6.70;;;15.00;99.90;;;;;;4990952;28;20049;-73
2023/06/17 01:49:10;;;;;;;8.80;6.80;;;15.00;99.90;;;;;;4975871;28;20137;-72
2023/06/17 01:51:39;;;;;;;8.88;5.97;;;15.00;99.90;;;;;;4984040;28;20124;-73
2023/06/17 01:54:08;;;;;;;7.82;6.30;;;15.00;99.90;;;;;;4991684;28;20429;-74
2023/06/17 01:56:36;;;;;;;8.20;6.25;;;14.90;99.90;;;;;;4983672;28;20052;-73
2023/06/17 01:59:06;;;;;;;8.90;6.55;;;14.90;99.90;;;;;;4971890;28;20078;-74
2023/06/17 02:01:33;;;;;;;7.57;6.60;;;14.90;99.90;;;;;;4975355;28;20050;-74
2023/06/17 02:04:01;;;;;;;8.98;6.90;;;14.90;99.90;;;;;;5008337;28;20057;-74
2023/06/17 02:06:29;;;;;;;8.27;6.50;;;14.90;99.90;;;;;;5010248;28;20081;-73
2023/06/17 02:08:57;;;;;;;7.68;6.57;;;14.90;99.90;;;;;;5009206;28;20077;-74
2023/06/17 02:11:25;;;;;;;8.43;6.47;;;14.90;99.90;;;;;;4975058;28;20046;-74
2023/06/17 02:13:52;;;;;;;9.02;6.65;;;14.90;99.90;;;;;;4992864;28;20088;-74
2023/06/17 02:16:19;;;;;;;9.57;7.15;;;14.90;99.90;;;;;;4976101;28;20323;-73
2023/06/17 02:18:48;;;;;;;7.70;6.40;;;14.80;99.90;;;;;;4995839;28;20053;-73
2023/06/17 02:21:16;;;;;;;7.35;6.35;;;14.80;99.90;;;;;;4979762;28;20053;-73
2023/06/17 02:23:48;;;;;;;8.90;6.80;;;14.80;99.90;;;;;;4991924;28;20532;-73
2023/06/17 02:26:16;;;;;;;6.70;5.63;;;14.80;99.90;;;;;;5010680;28;20120;-74
2023/06/17 02:28:44;;;;;;;6.90;5.90;;;14.80;99.90;;;;;;4974199;28;20566;-75
2023/06/17 02:31:13;;;;;;;9.23;6.70;;;14.80;99.90;;;;;;4975028;28;20104;-73
2023/06/17 02:33:41;;;;;;;8.93;6.57;;;14.80;99.90;;;;;;4990777;28;20125;-73
2023/06/17 02:36:11;;;;;;;9.70;6.90;;;14.80;99.90;;;;;;4976168;28;20046;-73
2023/06/17 02:38:39;;;;;;;7.80;6.88;;;14.70;99.90;;;;;;4999365;28;20049;-73
2023/06/17 02:41:06;;;;;;;9.00;7.15;;;14.70;99.90;;;;;;4984522;28;20426;-74
2023/06/17 02:43:34;;;;;;;9.07;7.30;;;14.60;99.90;;;;;;4975197;28;20084;-72
2023/06/17 02:46:01;;;;;;;7.38;6.32;;;14.50;99.90;;;;;;5009718;28;20054;-74
2023/06/17 02:48:31;;;;;;;9.90;7.15;;;14.50;99.90;;;;;;4991026;28;20042;-74
2023/06/17 02:50:59;;;;;;;8.20;7.10;;;14.50;99.90;;;;;;4992951;28;20493;-73
2023/06/17 02:53:27;;;;;;;9.43;6.50;;;14.40;99.90;;;;;;5014458;28;20045;-74
2023/06/17 02:55:55;;;;;;;9.35;7.10;;;14.40;99.90;;;;;;4989942;28;20513;-73
2023/06/17 02:58:25;;;;;;;10.50;7.22;;;14.30;99.90;;;;;;4958679;28;20584;-74
2023/06/17 03:00:55;;;;;;;11.02;6.57;;;14.30;99.90;;;;;;4989843;28;20050;-74
2023/06/17 03:03:33;;;;;;;9.00;7.05;;;14.30;99.90;;;;;;5007817;28;20433;-73
2023/06/17 03:06:05;;;;;;;8.68;6.85;;;14.30;99.90;;;;;;4974553;28;20146;-74
2023/06/17 03:08:36;;;;;;;9.05;7.32;;;14.20;99.90;;;;;;4988993;28;20042;-74
2023/06/17 03:11:04;;;;;;;8.15;6.53;;;14.20;99.90;;;;;;4978442;28;20389;-74
2023/06/17 03:13:33;;;;;;;7.50;6.60;;;14.20;99.90;;;;;;4995523;28;20108;-75
2023/06/17 03:16:08;;;;;;;10.32;6.90;;;14.20;99.90;;;;;;4994829;28;20072;-73
2023/06/17 03:18:36;;;;;;;8.27;6.50;;;14.20;99.90;;;;;;5002909;28;20042;-74
2023/06/17 03:21:04;;;;;;;8.52;7.20;;;14.20;99.90;;;;;;4978490;28;20525;-72
2023/06/17 03:23:32;;;;;;;7.88;7.07;;;14.20;99.90;;;;;;4995219;28;20045;-74
2023/06/17 03:25:59;;;;;;;7.85;6.65;;;14.20;99.90;;;;;;4980257;28;20069;-74
2023/06/17 03:28:27;;;;;;;10.98;6.70;;;14.20;99.90;;;;;;5016331;28;20061;-74
2023/06/17 03:30:56;;;;;;;9.38;6.63;;;14.20;99.90;;;;;;4985470;28;20049;-74
2023/06/17 03:33:23;;;;;;;8.93;7.25;;;14.20;99.90;;;;;;4962530;28;20085;-74
2023/06/17 03:35:51;;;;;;;9.90;7.20;;;14.20;99.90;;;;;;5005316;28;20533;-74
2023/06/17 03:38:19;;;;;;;11.07;7.07;;;14.20;99.90;;;;;;4975397;28;20050;-74
2023/06/17 03:40:47;;;;;;;8.07;6.78;;;14.20;99.90;;;;;;4992029;28;20486;-74
2023/06/17 03:43:15;;;;;;;9.15;7.05;;;14.20;99.90;;;;;;4993036;28;20050;-74
2023/06/17 03:45:45;;;;;;;11.05;7.25;;;14.30;99.90;;;;;;5010630;28;20085;-74
2023/06/17 03:48:13;;;;;;;8.48;6.50;;;14.30;99.90;;;;;;4994054;28;20046;-74
2023/06/17 03:50:40;;;;;;;8.73;6.10;;;14.30;99.90;;;;;;4994496;28;20056;-73
2023/06/17 03:53:08;;;;;;;7.53;6.35;;;14.40;99.90;;;;;;4993332;28;20056;-73
2023/06/17 03:55:37;;;;;;;8.32;6.60;;;14.40;99.90;;;;;;4991715;28;20379;-74
2023/06/17 03:58:05;;;;;;;8.90;7.15;;;14.50;99.90;;;;;;4992032;28;20128;-74
2023/06/17 04:00:34;;;;;;;8.80;7.05;;;14.50;99.90;;;;;;4977558;28;20470;-74
2023/06/17 04:03:02;;;;;;;8.60;6.72;;;14.60;99.90;;;;;;4962782;28;20599;-73
2023/06/17 04:05:32;;;;;;;9.23;6.30;;;14.60;99.90;;;;;;4961942;28;20050;-74
2023/06/17 04:08:02;;;;;;;10.02;7.20;;;14.60;99.90;;;;;;4995263;28;20049;-74
2023/06/17 04:10:33;;;;;;;11.07;7.13;;;14.70;99.90;;;;;;4980096;28;20050;-74
2023/06/17 04:13:01;;;;;;;9.57;8.02;;;14.70;99.90;;;;;;4983310;28;20100;-74
2023/06/17 04:15:28;;;;;;;10.43;8.00;;;14.70;99.90;;;;;;4961361;28;20127;-74
2023/06/17 04:17:57;;;;;;;9.40;7.38;;;14.70;99.90;;;;;;4977394;28;20045;-73
2023/06/17 04:20:26;;;;;;;9.05;6.88;;;14.80;99.90;;;;;;4993351;28;20080;-74
2023/06/17 04:22:55;;;;;;;10.40;7.95;;;14.90;99.90;;;;;;4977370;28;20731;-74
2023/06/17 04:25:22;;;;;;;12.68;7.78;;;15.00;99.90;;;;;;4977716;28;20049;-74
2023/06/17 04:27:56;;;;;;;10.20;7.87;;;15.00;99.90;;;;;;5009243;28;20057;-74
2023/06/17 04:30:27;;;;;;;13.35;9.95;;;15.10;99.90;;;;;;4977561;28;20049;-74
2023/06/17 04:32:59;;;;;;;8.63;7.10;;;15.10;99.90;;;;;;4976249;28;20046;-74
2023/06/17 04:35:29;;;;;;;10.65;7.50;;;15.20;99.90;;;;;;4977682;28;20074;-74
2023/06/17 04:38:00;;;;;;;10.05;7.55;;;15.20;99.90;;;;;;4977743;28;20204;-74
2023/06/17 04:40:27;;;;;;;9.00;7.40;;;15.20;99.90;;;;;;4993403;28;20736;-74
2023/06/17 04:42:55;;;;;;;9.45;7.55;;;15.20;99.90;;;;;;4992215;28;20060;-74
2023/06/17 04:45:27;;;;;;;12.23;8.68;;;15.20;99.90;;;;;;5009701;28;20053;-74
2023/06/17 04:47:58;;;;;;;;;;;15.20;99.90;;;;;;4976397;28;20517;-74
2023/06/17 04:50:29;;;;;;;11.10;8.90;;;15.20;99.90;;;;;;5009604;28;20376;-74
2023/06/17 04:53:03;;;;;;;10.98;8.93;;;15.30;99.90;;;;;;4976437;28;20132;-73
2023/06/17 04:55:36;;;;;;;8.75;7.45;;;15.30;99.90;;;;;;4992796;28;20557;-74
2023/06/17 04:58:05;;;;;;;;;;;15.40;99.90;;;;;;4988576;28;20042;-73
2023/06/17 05:00:40;;;;;;;11.02;7.78;;;15.40;99.90;;;;;;4976864;28;20027;-74
2023/06/17 05:03:12;;;;;;;;;;;15.40;99.90;;;;;;5008523;28;20696;-74
2023/06/17 05:05:40;;;;;;;8.05;7.10;;;15.50;99.90;;;;;;4992427;28;19928;-74
2023/06/17 05:08:07;;;;;;;10.55;7.70;;;15.60;99.90;;;;;;4992057;28;20092;-74
2023/06/17 05:10:36;;;;;;;8.70;7.65;;;15.70;99.90;;;;;;4987075;28;20046;-73
2023/06/17 05:13:05;;;;;;;9.80;8.15;;;15.80;99.90;;;;;;4973479;28;20137;-73
2023/06/17 05:15:34;;;;;;;8.93;7.50;;;15.80;99.90;;;;;;4976388;28;20073;-73
2023/06/17 05:18:02;;;;;;;10.38;8.25;;;15.80;99.90;;;;;;4977929;28;20072;-72
2023/06/17 05:20:30;;;;;;;9.88;7.75;;;15.90;99.90;;;;;;4993370;28;20056;-73
2023/06/17 05:23:00;;;;;;;9.15;7.70;;;16.00;99.90;;;;;;4975668;28;20049;-72
2023/06/17 05:25:28;;;;;;;10.80;7.68;;;16.10;99.90;;;;;;4994102;28;20057;-72
2023/06/17 05:27:55;;;;;;;9.82;8.75;;;16.20;99.90;;;;;;5011494;28;20418;-72
2023/06/17 05:30:27;;;;;;;12.75;8.93;;;16.30;99.90;;;;;;4980097;28;20046;-74
2023/06/17 05:32:57;;;;;;;10.13;7.88;;;16.30;99.90;;;;;;4976492;28;20038;-73
2023/06/17 05:35:28;;;;;;;11.90;8.82;;;16.50;99.90;;;;;;4992758;28;20108;-73
2023/06/17 05:37:57;;;;;;;10.60;8.37;;;16.50;99.90;;;;;;4976542;28;20148;-73
2023/06/17 05:40:24;;;;;;;9.98;8.90;;;16.60;99.90;;;;;;4976518;28;20494;-72
2023/06/17 05:42:52;;;;;;;10.82;9.68;;;16.90;99.90;;;;;;4985094;28;20057;-74
2023/06/17 05:45:20;;;;;;;11.43;9.48;;;17.20;99.90;;;;;;4993249;28;20563;-74
2023/06/17 05:47:48;;;;;;;11.88;8.80;;;17.40;99.90;;;;;;5013052;28;20080;-75
2023/06/17 05:50:16;;;;;;;10.38;8.75;;;17.60;99.90;;;;;;4962262;28;20046;-75
2023/06/17 05:52:45;;;;;;;10.82;9.57;;;17.90;99.90;;;;;;4996548;28;20046;-75
2023/06/17 05:55:13;;;;;;;10.00;9.00;;;18.10;99.90;;;;;;4997915;28;20042;-75
2023/06/17 05:57:41;;;;;;;11.88;9.88;;;18.30;99.90;;;;;;4982592;28;20105;-75
2023/06/17 06:00:09;;;;;;;12.70;8.95;;;18.50;99.90;;;;;;5000664;28;20056;-74
2023/06/17 06:02:39;;;;;;;11.00;9.45;;;18.50;99.90;;;;;;4990856;28;20334;-73
2023/06/17 06:05:10;;;;;;;12.25;9.73;;;18.60;99.90;;;;;;4961668;28;20045;-73
2023/06/17 06:07:38;;;;;;;12.38;9.90;;;18.50;99.90;;;;;;4990823;28;20426;-73
2023/06/17 06:10:07;;;;;;;12.70;9.65;;;18.10;99.90;;;;;;4992783;28;20046;-74
2023/06/17 06:12:38;;;;;;;12.88;10.73;;;17.90;99.90;;;;;;4975490;28;20050;-74
2023/06/17 06:15:06;;;;;;;10.02;9.02;;;17.70;99.90;;;;;;4991677;28;20042;-74
2023/06/17 06:17:34;;;;;;;12.40;9.90;;;17.70;99.90;;;;;;4991141;28;20057;-74
2023/06/17 06:20:01;;;;;;;13.93;9.80;;;18.00;99.90;;;;;;5008043;28;20046;-74
2023/06/17 06:22:29;;;;;;;14.85;10.85;;;18.00;99.90;;;;;;4975092;28;20425;-74
2023/06/17 06:24:57;;;;;;;13.32;10.15;;;18.30;99.90;;;;;;4992556;28;20053;-74
2023/06/17 06:27:24;;;;;;;12.18;10.07;;;18.20;99.90;;;;;;5007691;28;20096;-74
2023/06/17 06:29:52;;;;;;;14.75;11.15;;;18.30;99.90;;;;;;4974928;28;20426;-73
2023/06/17 06:32:20;;;;;;;12.82;11.48;;;18.60;99.90;;;;;;4989549;28;20058;-73
2023/06/17 06:34:49;;;;;;;12.02;10.63;;;18.80;99.90;;;;;;4975326;28;20045;-73
2023/06/17 06:37:17;;;;;;;11.98;9.95;;;19.00;99.90;;;;;;4992415;28;20113;-73
2023/06/17 06:39:45;;;;;;;16.58;10.57;;;19.20;99.90;;;;;;4998975;28;20100;-74
2023/06/17 06:42:13;;;;;;;13.13;10.77;;;19.40;99.90;;;;;;4991699;28;20056;-74
2023/06/17 06:45:07;;;;;;;13.15;9.98;;;19.70;99.90;;;;;;4976600;28;20221;-74
2023/06/17 06:47:35;;;;;;;13.15;11.05;;;19.90;99.90;;;;;;4963016;28;20509;-74
2023/06/17 06:50:03;;;;;;;12.45;10.43;;;19.90;99.90;;;;;;4994642;28;20425;-74
2023/06/17 06:52:31;;;;;;;11.35;9.82;;;19.70;99.90;;;;;;4980674;28;20073;-73
2023/06/17 06:54:59;;;;;;;11.25;10.00;;;19.80;99.90;;;;;;4986210;28;20541;-74
2023/06/17 06:57:27;;;;;;;11.98;10.65;;;19.90;99.90;;;;;;4997646;28;20049;-74
2023/06/17 06:59:55;;;;;;;12.48;11.18;;;19.80;99.90;;;;;;4979852;28;20066;-74
2023/06/17 07:02:23;;;;;;;12.95;11.10;;;19.50;99.90;;;;;;4977057;28;20229;-74
2023/06/17 07:04:51;;;;;;;13.27;11.25;;;19.40;99.90;;;;;;4962246;28;20069;-74
2023/06/17 07:07:26;;;;;;;13.52;10.70;;;19.30;99.90;;;;;;5010664;28;20058;-74
2023/06/17 07:09:55;;;;;;;16.60;11.50;;;19.30;99.90;;;;;;4995564;28;20082;-74
2023/06/17 07:12:23;;;;;;;12.00;10.02;;;19.40;99.90;;;;;;4995459;28;20076;-74
2023/06/17 07:14:50;;;;;;;11.57;10.32;;;19.30;99.90;;;;;;4980459;28;20060;-74
2023/06/17 07:17:17;;;;;;;12.00;9.57;;;19.70;99.90;;;;;;4995944;28;20042;-74
2023/06/17 07:19:45;;;;;;;16.75;10.20;;;19.70;99.90;;;;;;4995328;28;20054;-74
2023/06/17 07:22:13;;;;;;;15.05;10.60;;;19.90;99.90;;;;;;4979200;28;20069;-74
2023/06/17 07:24:41;;;;;;;12.38;9.32;;;20.10;99.90;;;;;;4978778;28;20054;-73
2023/06/17 07:27:09;;;;;;;12.68;9.45;;;20.10;99.90;;;;;;4979822;28;20049;-73
2023/06/17 07:29:36;;;;;;;12.32;8.90;;;20.00;99.90;;;;;;4988272;28;20080;-74
2023/06/17 07:32:04;;;;;;;13.43;9.52;;;19.90;99.90;;;;;;4980669;28;20050;-75
2023/06/17 07:34:32;;;;;;;11.70;9.60;;;20.10;99.90;;;;;;4995312;28;20050;-75
2023/06/17 07:37:00;;;;;;;10.60;9.50;;;20.10;99.90;;;;;;5001255;28;20042;-75
2023/06/17 07:39:27;;;;;;;12.23;9.68;;;20.10;99.90;;;;;;4995328;28;20141;-74
2023/06/17 07:41:55;;;;;;;11.55;9.68;;;20.10;99.90;;;;;;4977639;28;20049;-74
2023/06/17 07:44:22;;;;;;;10.02;8.85;;;20.10;99.90;;;;;;4993544;28;20046;-74
2023/06/17 07:46:50;;;;;;;10.85;9.75;;;20.10;99.90;;;;;;4995102;28;20046;-75
2023/06/17 07:49:17;;;;;;;12.43;9.68;;;20.20;99.90;;;;;;4981402;28;20045;-74
2023/06/17 07:51:45;;;;;;;9.82;8.73;;;20.30;99.90;;;;;;4996516;28;20053;-74
2023/06/17 07:54:13;;;;;;;10.32;9.27;;;20.40;99.90;;;;;;4979188;28;20045;-74
2023/06/17 07:56:41;;;;;;;11.10;9.15;;;20.60;99.90;;;;;;5010470;28;20038;-75
2023/06/17 07:59:09;;;;;;;10.48;9.18;;;20.60;99.90;;;;;;4996829;28;20046;-74
2023/06/17 08:01:37;;;;;;;9.90;8.90;;;20.60;99.90;;;;;;5017135;28;20050;-75
2023/06/17 08:04:04;;;;;;;14.32;8.70;;;20.80;99.90;;;;;;5013100;28;20537;-74
2023/06/17 08:06:32;;;;;;;11.32;8.70;;;20.90;99.90;;;;;;5010934;28;20042;-74
2023/06/17 08:09:02;;;;;;;10.43;8.90;;;20.90;99.90;;;;;;5001668;28;20054;-75
2023/06/17 08:11:31;;;;;;;11.50;8.85;;;21.10;99.90;;;;;;4993131;28;20058;-74
2023/06/17 08:13:59;;;;;;;11.60;8.65;;;21.20;99.90;;;;;;4993995;28;20128;-74
2023/06/17 08:16:26;;;;;;;10.45;9.30;;;21.20;99.90;;;;;;5011677;28;20053;-75
2023/06/17 08:18:55;;;;;;;10.95;9.38;;;21.20;99.90;;;;;;5015564;28;20046;-74
2023/06/17 08:21:23;;;;;;;11.88;9.70;;;21.30;99.90;;;;;;4997950;28;20149;-75
2023/06/17 08:23:51;;;;;;;10.95;9.13;;;21.20;99.90;;;;;;5018758;28;20139;-74
2023/06/17 08:26:18;;;;;;;10.90;9.60;;;21.20;99.90;;;;;;4979664;28;20057;-73
2023/06/17 08:28:46;;;;;;;10.55;9.50;;;21.30;99.90;;;;;;4997778;28;20386;-74
2023/06/17 08:31:13;;;;;;;10.63;9.15;;;21.40;99.90;;;;;;5011316;28;20561;-74
2023/06/17 08:33:41;;;;;;;13.10;9.63;;;21.50;99.90;;;;;;5009918;28;20085;-74
2023/06/17 08:36:08;;;;;;;10.18;8.95;;;21.30;99.90;;;;;;4993250;28;20074;-73
2023/06/17 08:38:37;;;;;;;12.50;9.90;;;21.40;99.90;;;;;;5009992;28;20137;-73
2023/06/17 08:41:05;;;;;;;10.82;9.02;;;21.50;99.90;;;;;;5010517;28;20069;-73
2023/06/17 08:43:37;;;;;;;12.30;9.05;;;21.70;99.90;;;;;;5009814;28;20053;-74
2023/06/17 08:46:05;;;;;;;13.68;9.27;;;21.70;99.90;;;;;;5009216;28;20524;-74
2023/06/17 08:48:34;;;;;;;17.17;9.55;;;21.90;99.90;;;;;;4993028;28;20052;-73
2023/06/17 08:51:02;;;;;;;13.93;8.43;;;22.00;99.90;;;;;;4977285;28;20049;-73
2023/06/17 08:53:32;;;;;;;13.65;8.77;;;22.10;99.90;;;;;;4976447;28;20100;-73
2023/06/17 08:55:59;;;;;;;11.88;9.63;;;22.20;99.90;;;;;;4991837;28;20045;-73
2023/06/17 08:58:27;;;;;;;11.18;8.57;;;22.30;99.90;;;;;;4977694;28;20141;-73
2023/06/17 09:00:57;;;;;;;10.00;8.80;;;22.50;99.90;;;;;;5007686;28;20049;-73
2023/06/17 09:03:25;;;;;;;11.35;9.18;;;22.60;99.90;;;;;;4991749;28;20370;-74
2023/06/17 09:05:53;;;;;;;11.93;9.05;;;22.70;99.90;;;;;;4991116;28;20046;-74
2023/06/17 09:08:21;;;;;;;14.32;8.68;;;22.90;99.90;;;;;;4990893;28;20143;-74
2023/06/17 09:10:48;;;;;;;14.15;9.35;;;23.00;99.90;;;;;;4976311;28;20053;-74
2023/06/17 09:13:16;;;;;;;15.32;9.30;;;23.30;99.90;;;;;;4998442;28;20425;-74
2023/06/17 09:15:43;;;;;;;12.30;8.88;;;23.30;99.90;;;;;;4991997;28;20120;-74
2023/06/17 09:18:15;;;;;;;9.68;8.77;;;23.60;99.90;;;;;;5014001;28;20045;-74
2023/06/17 09:20:51;;;;;;;9.35;8.43;;;24.10;99.90;;;;;;5009153;28;20073;-74
2023/06/17 09:23:18;;;;;;;11.65;8.77;;;24.40;99.90;;;;;;4977596;28;20413;-74
2023/06/17 09:25:46;;;;;;;12.18;8.95;;;24.40;99.90;;;;;;4992231;28;20066;-74
2023/06/17 09:28:16;;;;;;;9.18;8.27;;;24.60;99.90;;;;;;4977146;28;20140;-74
2023/06/17 09:30:53;;;;;;;9.20;8.30;;;24.90;99.90;;;;;;4993659;28;20045;-73
2023/06/17 09:33:21;;;;;;;9.93;8.30;;;24.60;99.90;;;;;;5010871;28;20042;-74
2023/06/17 09:36:11;;;;;;;9.10;8.20;;;24.70;99.90;;;;;;4993996;28;20146;-74
2023/06/17 09:38:39;;;;;;;11.70;8.80;;;24.70;99.90;;;;;;4993541;28;20049;-74
2023/06/17 09:41:12;;;;;;;8.98;8.07;;;24.70;99.90;;;;;;4979410;28;20049;-74
2023/06/17 09:43:41;;;;;;;9.50;7.63;;;24.40;98.70;;;;;;4977794;28;20050;-73
2023/06/17 09:46:10;;;;;;;8.98;7.90;;;24.60;98.20;;;;;;4992498;28;20139;-74
2023/06/17 09:48:38;;;;;;;9.02;7.75;;;24.70;97.30;;;;;;4984299;28;20053;-74
2023/06/17 09:51:12;;;;;;;8.68;7.78;;;25.00;96.80;;;;;;5010087;28;20044;-74
2023/06/17 09:53:42;;;;;;;8.98;7.88;;;25.20;96.10;;;;;;4992244;28;20131;-73
2023/06/17 09:56:12;;;;;;;10.07;8.07;;;25.10;95.10;;;;;;4992257;28;20129;-74
2023/06/17 09:58:42;;;;;;;8.60;7.80;;;24.80;95.70;;;;;;4992261;28;20050;-73
2023/06/17 10:01:12;;;;;;;8.20;7.40;;;24.40;95.30;;;;;;5007535;28;20053;-74
2023/06/17 10:03:40;;;;;;;8.85;7.88;;;24.30;95.00;;;;;;4989009;28;20145;-73
2023/06/17 10:06:10;;;;;;;9.85;8.10;;;24.40;95.20;;;;;;4991170;28;20053;-73
2023/06/17 10:08:40;;;;;;;9.48;8.15;;;24.90;94.40;;;;;;4990874;28;20316;-73
2023/06/17 10:11:09;;;;;;;8.68;7.78;;;25.10;93.20;;;;;;4995857;28;20101;-75
2023/06/17 10:13:39;;;;;;;8.43;7.63;;;25.20;92.50;;;;;;5009558;28;20116;-73
2023/06/17 10:16:11;;;;;;;9.65;7.88;;;25.30;92.80;;;;;;5017121;28;20057;-73
2023/06/17 10:18:44;;;;;;;9.50;7.78;;;25.70;92.00;;;;;;5010339;28;20490;-73
2023/06/17 10:21:13;;;;;;;9.20;7.88;;;25.90;91.60;;;;;;4992617;28;20058;-74
2023/06/17 10:23:43;;;;;;;9.07;8.18;;;26.30;90.30;;;;;;4980015;28;20617;-73
2023/06/17 10:26:13;;;;;;;9.32;8.43;;;26.40;90.50;;;;;;4983909;28;20060;-73
2023/06/17 10:29:10;;;;;;;9.88;8.50;;;26.30;89.80;;;;;;4988532;28;20470;-74
2023/06/17 10:31:42;;;;;;;9.73;8.15;;;26.40;90.10;;;;;;4995235;28;20089;-74
2023/06/17 10:34:22;;;;;;;9.15;8.30;;;26.60;89.00;;;;;;5013101;28;20046;-74
2023/06/17 10:36:51;;;;;;;11.82;8.57;;;26.90;88.10;;;;;;4991284;28;20458;-73
2023/06/17 10:39:19;;;;;;;8.85;7.90;;;26.50;86.20;;;;;;4996570;28;20070;-74
2023/06/17 10:41:50;;;;;;;8.98;8.07;;;26.30;87.40;;;;;;5013639;28;20077;-74
2023/06/17 10:44:34;;;;;;;11.90;9.00;;;26.10;87.30;;;;;;4997032;28;20050;-75
2023/06/17 10:47:14;;;;;;;8.88;7.97;;;26.10;87.20;;;;;;5015672;28;20050;-73
2023/06/17 10:49:42;;;;;;;9.05;8.13;;;26.20;87.00;;;;;;4966093;28;20058;-74
2023/06/17 10:52:13;;;;;;;14.73;8.05;;;26.50;85.20;;;;;;4995826;28;20117;-72
2023/06/17 10:54:45;;;;;;;;;;;26.40;83.30;;;;;;5006525;28;20053;-73
2023/06/17 10:57:12;;;;;;;9.20;8.27;;;26.30;84.00;;;;;;5012357;28;19925;-74
2023/06/17 10:59:41;;;;;;;11.73;8.60;;;26.50;82.70;;;;;;5012383;28;21096;-74
2023/06/17 11:02:08;;;;;;;10.63;7.55;;;26.50;80.70;;;;;;4990023;28;20089;-75
2023/06/17 11:04:41;;;;;;;9.18;8.20;;;26.50;81.50;;;;;;4971234;28;20417;-73
2023/06/17 11:07:08;;;;;;;;;;;26.20;81.20;;;;;;5002576;28;20048;-73
2023/06/17 11:09:37;;;;;;;9.77;8.48;;;25.80;82.60;;;;;;4994660;28;20360;-73
2023/06/17 11:12:06;;;;;;;10.32;8.32;;;26.10;83.20;;;;;;5012106;28;20064;-74
2023/06/17 11:14:36;;;;;;;8.52;7.72;;;26.60;82.00;;;;;;4994985;28;20050;-74
2023/06/17 11:17:04;;;;;;;9.50;7.90;;;26.80;80.10;;;;;;4994824;28;20050;-73
2023/06/17 11:19:32;;;;;;;8.80;7.90;;;26.80;79.90;;;;;;5012406;28;20104;-75
2023/06/17 11:22:07;;;;;;;9.20;7.95;;;27.00;78.10;;;;;;4995545;28;20141;-73
2023/06/17 11:24:37;;;;;;;10.15;8.00;;;27.40;78.70;;;;;;4996200;28;20065;-74
2023/06/17 11:27:06;;;;;;;7.97;7.18;;;27.70;77.70;;;;;;4998596;28;20053;-74
2023/06/17 11:29:33;;;;;;;9.40;7.72;;;27.70;74.60;;;;;;4992230;28;20093;-74
2023/06/17 11:32:02;;;;;;;8.57;7.78;;;27.70;72.40;;;;;;4994782;28;20101;-74
2023/06/17 11:34:31;;;;;;;8.27;7.47;;;27.80;71.70;;;;;;4994992;28;20418;-74
2023/06/17 11:37:06;;;;;;;8.60;7.80;;;27.90;72.30;;;;;;4998428;28;20093;-73
2023/06/17 11:39:36;;;;;;;8.43;7.63;;;27.60;73.30;;;;;;5019329;28;20577;-73
2023/06/17 11:42:08;;;;;;;8.00;7.30;;;27.70;73.30;;;;;;5010727;28;20069;-75
2023/06/17 11:44:37;;;;;;;8.43;7.65;;;28.20;73.00;;;;;;5001940;28;20042;-73
2023/06/17 11:47:06;;;;;;;8.75;7.88;;;28.30;68.10;;;;;;4976849;28;20375;-73
2023/06/17 11:49:34;;;;;;;9.25;7.65;;;28.50;68.00;;;;;;4960988;28;20054;-75
2023/06/17 11:52:09;;;;;;;9.23;7.80;;;28.80;69.20;;;;;;4995223;28;20077;-75
2023/06/17 11:54:48;;;;;;;8.55;7.65;;;28.70;68.10;;;;;;4970594;28;20104;-74
2023/06/17 11:57:20;;;;;;;8.40;7.55;;;28.50;65.80;;;;;;5011792;28;20056;-73
2023/06/17 11:59:49;;;;;;;10.07;7.57;;;28.70;66.70;;;;;;4994068;28;20475;-74
2023/06/17 12:02:18;;;;;;;8.45;7.55;;;29.70;66.10;;;;;;4992907;28;20050;-75
2023/06/17 12:04:47;;;;;;;8.05;7.25;;;30.20;65.20;;;;;;4993192;28;20050;-75
2023/06/17 12:07:14;;;;;;;12.88;7.85;;;30.60;65.20;;;;;;4977582;28;20054;-74
2023/06/17 12:09:53;;;;;;;7.97;7.25;;;30.00;65.20;;;;;;4992379;28;20104;-74
2023/06/17 12:12:28;;;;;;;7.82;7.05;;;29.20;66.20;;;;;;4994272;28;20057;-73
2023/06/17 12:15:09;;;;;;;10.30;7.43;;;29.80;65.30;;;;;;5011078;28;20061;-74
2023/06/17 12:17:46;;;;;;;7.90;7.13;;;30.00;64.60;;;;;;4977204;28;20516;-74
2023/06/17 12:20:15;;;;;;;7.93;7.22;;;29.80;65.10;;;;;;4993530;28;20064;-74
2023/06/17 12:22:44;;;;;;;7.95;7.15;;;30.40;65.30;;;;;;4978291;28;20089;-73
2023/06/17 12:25:12;;;;;;;9.30;7.38;;;30.20;65.40;;;;;;5011931;28;20054;-73
2023/06/17 12:27:43;;;;;;;10.32;7.57;;;30.10;64.40;;;;;;4993826;28;20156;-73
2023/06/17 12:30:11;;;;;;;7.85;7.05;;;30.00;64.30;;;;;;5013539;28;20083;-73
2023/06/17 12:32:42;;;;;;;8.00;7.20;;;30.20;63.50;;;;;;5002569;28;20496;-74
2023/06/17 12:35:11;;;;;;;8.27;7.47;;;30.80;63.30;;;;;;4978311;28;20069;-74
2023/06/17 12:37:41;;;;;;;8.77;7.63;;;30.70;61.80;;;;;;4986468;28;20046;-73
2023/06/17 12:40:15;;;;;;;9.75;7.40;;;30.60;60.40;;;;;;4994136;28;20042;-74
2023/06/17 12:42:43;;;;;;;7.85;7.05;;;31.30;60.30;;;;;;5010502;28;20540;-73
2023/06/17 12:45:10;;;;;;;8.30;7.50;;;31.60;58.10;;;;;;5010326;28;20069;-73
2023/06/17 12:47:39;;;;;;;7.82;7.13;;;31.50;58.20;;;;;;4992551;28;20050;-73
2023/06/17 12:50:10;;;;;;;8.40;7.60;;;32.30;56.80;;;;;;4992388;28;20140;-74
2023/06/17 12:52:38;;;;;;;7.70;6.90;;;31.70;56.30;;;;;;4995331;28;20045;-76
2023/06/17 12:55:06;;;;;;;8.27;7.35;;;31.40;55.80;;;;;;4994798;28;20410;-74